Time;durP1;ratioP1;P1;durP2;ratioP2;P2;SDS_P1;SDS_P2;PMS_P1;PMS_P2;Temp;Humidity;BMP_temperature;BMP_pressure;BME280_temperature;BME280_humidity;BME280_pressure;Samples;Min_cycle;Max_cycle;Signal;HPM_P1;HPM_P2
2022/11/05 00:09:59;;;;;;;;;;;;;;;11.96;53.24;100126.56;4934001;28;98014;-66
2022/11/05 00:17:53;;;;;;;;;;;;;;;11.95;53.19;100143.06;4935115;28;98121;-66
2022/11/05 00:20:19;;;;;;;;;;;;;;;11.93;53.16;100151.44;4938872;28;127257;-65
2022/11/05 00:25:30;;;;;;;;;;;;;;;11.94;53.22;100144.94;4929433;28;98401;-66
2022/11/05 00:28:00;;;;;;;;;;;;;;;11.94;53.05;100154.94;4936974;28;98131;-66
2022/11/05 00:30:26;;;;;;;;;;;;;;;11.93;52.89;100154.13;4954904;28;98964;-65
2022/11/05 00:32:52;;;;;;;;;;;;;;;11.93;53.11;100156.03;4936959;28;117657;-65
2022/11/05 00:35:19;;;;;;;;;;;;;;;11.93;53.28;100156.84;4944575;28;116618;-66
2022/11/05 00:37:45;;;;;;;;;;;;;;;11.93;53.29;100158.75;4943757;28;98408;-65
2022/11/05 00:40:11;;;;;;;;;;;;;;;11.93;53.19;100159.53;4941039;28;127449;-65
2022/11/05 00:45:24;;;;;;;;;;;;;;;11.92;53.34;100159.84;4935909;28;99106;-65
2022/11/05 00:50:35;;;;;;;;;;;;;;;11.91;53.35;100167.13;4937902;28;98029;-66
2022/11/05 00:53:01;;;;;;;;;;;;;;;11.92;53.21;100170.66;4942344;28;116117;-65
2022/11/05 00:55:38;;;;;;;;;;;;;;;11.91;53.23;100171.75;4941453;28;109133;-65
2022/11/05 00:58:10;;;;;;;;;;;;;;;11.91;53.22;100171.75;4943024;28;99111;-65
2022/11/05 01:00:37;;;;;;;;;;;;;;;11.92;53.28;100171.44;4938452;28;97955;-65
2022/11/05 01:03:06;;;;;;;;;;;;;;;11.90;53.23;100172.81;4941987;28;97988;-66
2022/11/05 01:05:32;;;;;;;;;;;;;;;11.90;53.31;100175.50;4943838;28;98254;-66
2022/11/05 01:07:58;;;;;;;;;;;;;;;11.91;53.23;100185.25;4941655;28;99231;-65
2022/11/05 01:10:24;;;;;;;;;;;;;;;11.90;53.22;100187.13;4945319;28;98464;-66
2022/11/05 01:12:50;;;;;;;;;;;;;;;11.90;53.26;100191.72;4943180;28;98794;-67
2022/11/05 01:15:16;;;;;;;;;;;;;;;11.90;53.30;100187.13;4942918;28;99180;-66
2022/11/05 01:17:42;;;;;;;;;;;;;;;11.89;53.20;100184.69;4941112;28;120717;-66
2022/11/05 01:20:09;;;;;;;;;;;;;;;11.89;53.33;100190.91;4938308;28;127404;-66
2022/11/05 01:22:35;;;;;;;;;;;;;;;11.90;53.09;100197.13;4938998;28;103950;-66
2022/11/05 01:25:01;;;;;;;;;;;;;;;11.90;53.19;100197.13;4939840;28;127890;-65
2022/11/05 01:27:27;;;;;;;;;;;;;;;11.88;53.29;100197.41;4938922;28;109905;-66
2022/11/05 01:29:52;;;;;;;;;;;;;;;11.89;53.26;100193.59;4939706;28;127364;-66
2022/11/05 01:32:18;;;;;;;;;;;;;;;11.89;53.19;100192.81;4940713;28;116160;-65
2022/11/05 01:34:44;;;;;;;;;;;;;;;11.89;53.23;100195.50;4937444;28;126888;-66
2022/11/05 01:37:10;;;;;;;;;;;;;;;11.88;53.30;100199.31;4939000;28;129015;-66
2022/11/05 01:39:36;;;;;;;;;;;;;;;11.88;53.16;100199.31;4947416;28;99203;-66
2022/11/05 01:42:02;;;;;;;;;;;;;;;11.88;53.09;100204.72;4942042;28;117410;-66
2022/11/05 01:45:02;;;;;;;;;;;;;;;11.88;53.31;100200.09;4943018;28;98329;-66
2022/11/05 01:47:59;;;;;;;;;;;;;;;11.88;53.34;100205.50;4943307;28;98644;-66
2022/11/05 01:50:42;;;;;;;;;;;;;;;11.88;53.36;100210.09;4940752;28;122360;-66
2022/11/05 01:53:19;;;;;;;;;;;;;;;11.87;53.27;100208.47;4937303;28;98386;-66
2022/11/05 01:55:48;;;;;;;;;;;;;;;11.86;53.37;100217.66;4939146;28;126701;-66
2022/11/05 01:58:18;;;;;;;;;;;;;;;11.86;53.42;100217.66;4944529;28;98550;-65
2022/11/05 02:00:44;;;;;;;;;;;;;;;11.86;53.36;100226.56;4942215;28;100431;-65
2022/11/05 02:03:10;;;;;;;;;;;;;;;11.86;53.35;100231.97;4953520;28;97890;-66
2022/11/05 02:05:36;;;;;;;;;;;;;;;11.86;53.27;100237.38;4940019;28;129220;-65
2022/11/05 02:08:02;;;;;;;;;;;;;;;11.86;53.30;100242.78;4936709;28;127593;-65
2022/11/05 02:10:28;;;;;;;;;;;;;;;11.86;53.34;100248.19;4943461;28;128286;-65
2022/11/05 02:12:54;;;;;;;;;;;;;;;11.86;53.44;100252.78;4940152;28;103255;-66
2022/11/05 02:15:35;;;;;;;;;;;;;;;11.86;53.36;100252.78;4941575;28;128188;-66
2022/11/05 02:18:12;;;;;;;;;;;;;;;11.85;53.32;100257.38;4942463;28;98593;-66
2022/11/05 02:20:45;;;;;;;;;;;;;;;11.86;53.25;100258.97;4925380;28;98143;-66
2022/11/05 02:23:42;;;;;;;;;;;;;;;11.84;53.24;100258.47;4938606;28;113154;-66
2022/11/05 02:26:20;;;;;;;;;;;;;;;11.86;53.37;100258.97;4940328;28;126473;-66
2022/11/05 02:29:10;;;;;;;;;;;;;;;11.86;53.17;100258.19;4939369;28;98388;-66
2022/11/05 02:31:45;;;;;;;;;;;;;;;11.85;53.36;100256.56;4938721;28;125219;-67
2022/11/05 02:34:22;;;;;;;;;;;;;;;11.85;53.30;100259.28;4942527;28;97840;-66
2022/11/05 02:37:08;;;;;;;;;;;;;;;11.85;53.34;100257.38;4924133;28;98977;-66
2022/11/05 02:39:38;;;;;;;;;;;;;;;11.85;53.36;100257.38;4938625;28;98452;-66
2022/11/05 02:42:12;;;;;;;;;;;;;;;11.84;53.43;100265.78;4942700;28;103424;-67
2022/11/05 02:44:43;;;;;;;;;;;;;;;11.84;53.27;100263.88;4942219;28;117613;-66
2022/11/05 02:47:33;;;;;;;;;;;;;;;11.84;53.28;100271.19;4941081;28;108533;-66
2022/11/05 02:50:06;;;;;;;;;;;;;;;11.85;53.30;100291.69;4957194;28;127575;-66
2022/11/05 02:52:58;;;;;;;;;;;;;;;11.84;53.39;100280.09;4940146;28;98519;-66
2022/11/05 02:55:29;;;;;;;;;;;;;;;11.84;53.27;100290.88;4937283;28;116108;-66
2022/11/05 02:57:55;;;;;;;;;;;;;;;11.85;53.37;100291.69;4941550;28;98582;-65
2022/11/05 03:00:39;;;;;;;;;;;;;;;11.91;53.40;100291.38;4940104;28;102233;-66
2022/11/05 03:03:09;;;;;;;;;;;;;;;11.99;53.46;100290.78;4941252;28;98271;-66
2022/11/05 03:05:57;;;;;;;;;;;;;;;12.06;53.21;100290.44;4942603;28;115077;-65
2022/11/05 03:08:33;;;;;;;;;;;;;;;12.13;53.28;100300.94;4938067;28;123049;-65
2022/11/05 03:11:15;;;;;;;;;;;;;;;12.17;53.49;100307.41;4940177;28;119054;-66
2022/11/05 03:14:11;;;;;;;;;;;;;;;12.19;53.37;100303.34;4936779;28;98195;-66
2022/11/05 03:16:40;;;;;;;;;;;;;;;12.23;53.41;100309.00;4937419;28;108444;-65
2022/11/05 03:19:22;;;;;;;;;;;;;;;12.26;53.37;100319.22;4939319;28;127922;-66
2022/11/05 03:21:56;;;;;;;;;;;;;;;12.27;53.51;100316.25;4936526;28;127219;-65
2022/11/05 03:24:33;;;;;;;;;;;;;;;12.29;53.12;100321.38;4939106;28;114479;-66
2022/11/05 03:27:05;;;;;;;;;;;;;;;12.30;53.55;100320.28;4933659;28;115016;-66
2022/11/05 03:29:39;;;;;;;;;;;;;;;12.31;53.36;100321.91;4916042;28;129036;-66
2022/11/05 03:32:05;;;;;;;;;;;;;;;12.32;53.62;100337.03;4918932;28;127211;-65
2022/11/05 03:34:34;;;;;;;;;;;;;;;12.32;53.39;100337.03;4935352;28;127619;-65
2022/11/05 03:37:00;;;;;;;;;;;;;;;12.33;53.41;100346.75;4916945;28;118098;-66
2022/11/05 03:39:36;;;;;;;;;;;;;;;12.33;53.43;100345.94;4923897;28;126600;-66
2022/11/05 03:42:03;;;;;;;;;;;;;;;12.32;53.57;100353.25;4935049;28;126870;-66
2022/11/05 03:44:31;;;;;;;;;;;;;;;12.32;53.39;100355.94;4917978;28;119258;-66
2022/11/05 03:47:05;;;;;;;;;;;;;;;12.32;53.57;100345.13;4936366;28;109666;-66
2022/11/05 03:49:37;;;;;;;;;;;;;;;12.31;53.39;100348.94;4938362;28;123435;-66
2022/11/05 03:52:08;;;;;;;;;;;;;;;12.29;53.41;100345.69;4933134;28;128051;-66
2022/11/05 03:54:34;;;;;;;;;;;;;;;12.29;53.54;100353.78;4968952;28;99443;-66
2022/11/05 03:57:14;;;;;;;;;;;;;;;12.29;53.64;100348.38;4936923;28;118111;-66
2022/11/05 03:59:44;;;;;;;;;;;;;;;12.27;53.33;100356.78;4919974;28;121431;-65
2022/11/05 04:02:10;;;;;;;;;;;;;;;12.27;53.40;100361.38;4952739;28;111601;-66
2022/11/05 04:04:36;;;;;;;;;;;;;;;12.26;53.41;100360.59;4937729;28;123543;-67
2022/11/05 04:15:20;;;;;;;;;;;;;;;12.23;53.56;100369.25;4929367;28;98112;-66
2022/11/05 04:17:46;;;;;;;;;;;;;;;12.22;53.46;100373.03;4955138;28;117135;-65
2022/11/05 04:25:55;;;;;;;;;;;;;;;12.20;53.64;100382.50;4936706;28;97853;-65
2022/11/05 04:30:17;;;;;;;;;;;;;;;12.20;53.32;100396.03;4940016;28;98210;-66
2022/11/05 04:31:06;;;;;;;;;;;;;;;12.19;53.37;100402.53;4968493;28;99008;-65
2022/11/05 04:33:32;;;;;;;;;;;;;;;12.19;53.42;100402.53;4945826;28;128213;-66
2022/11/05 04:35:59;;;;;;;;;;;;;;;12.18;53.45;100407.13;4939930;28;126562;-65
2022/11/05 04:38:25;;;;;;;;;;;;;;;12.16;53.36;100411.97;4937563;28;97971;-65
2022/11/05 04:40:50;;;;;;;;;;;;;;;12.15;53.44;100410.38;4938811;28;122357;-66
2022/11/05 04:43:17;;;;;;;;;;;;;;;12.15;53.59;100404.97;4940536;28;127951;-66
2022/11/05 04:45:43;;;;;;;;;;;;;;;12.15;53.43;100406.88;4940605;28;98116;-64
2022/11/05 04:48:09;;;;;;;;;;;;;;;12.14;53.42;100411.44;4925982;28;115988;-66
2022/11/05 04:50:35;;;;;;;;;;;;;;;12.13;53.36;100412.53;4938162;28;109050;-67
2022/11/05 04:53:01;;;;;;;;;;;;;;;12.13;53.53;100417.13;4939861;28;127120;-65
2022/11/05 04:55:27;;;;;;;;;;;;;;;12.11;53.62;100422.03;4942024;28;127004;-66
2022/11/05 04:57:53;;;;;;;;;;;;;;;12.11;53.51;100428.22;4946409;28;108311;-66
2022/11/05 05:00:20;;;;;;;;;;;;;;;12.10;53.52;100437.41;4955263;28;128946;-65
2022/11/05 05:02:46;;;;;;;;;;;;;;;12.10;53.46;100428.50;4943347;28;98738;-66
2022/11/05 05:05:12;;;;;;;;;;;;;;;12.09;53.59;100435.78;4936438;28;99166;-65
2022/11/05 05:07:39;;;;;;;;;;;;;;;12.08;53.49;100431.47;4942832;28;99246;-65
2022/11/05 05:10:05;;;;;;;;;;;;;;;12.08;53.61;100439.59;4941513;28;98654;-66
2022/11/05 05:12:32;;;;;;;;;;;;;;;12.08;53.57;100444.19;4937913;28;98073;-66
2022/11/05 05:14:58;;;;;;;;;;;;;;;12.06;53.38;100455.25;4939972;28;98634;-65
2022/11/05 05:17:24;;;;;;;;;;;;;;;12.06;53.54;100454.44;4939003;28;116997;-65
2022/11/05 05:22:34;;;;;;;;;;;;;;;12.04;53.35;100455.53;4939458;28;98191;-65
2022/11/05 05:25:00;;;;;;;;;;;;;;;12.04;53.54;100460.13;4939057;28;126767;-65
2022/11/05 05:27:30;;;;;;;;;;;;;;;12.03;53.29;100461.22;4940669;28;97881;-65
2022/11/05 05:29:56;;;;;;;;;;;;;;;12.04;53.40;100460.13;4943676;28;99016;-66
2022/11/05 05:32:23;;;;;;;;;;;;;;;12.02;53.46;100459.59;4939218;28;99075;-66
2022/11/05 05:34:48;;;;;;;;;;;;;;;12.02;53.67;100467.69;4937414;28;127857;-65
2022/11/05 05:37:14;;;;;;;;;;;;;;;12.01;53.55;100463.38;4936667;28;117681;-65
2022/11/05 05:39:40;;;;;;;;;;;;;;;12.00;53.55;100465.28;4938126;28;125364;-64
2022/11/05 05:42:06;;;;;;;;;;;;;;;12.01;53.53;100469.59;4939937;28;98325;-65
2022/11/05 05:44:33;;;;;;;;;;;;;;;11.99;53.49;100473.69;4940973;28;127290;-66
2022/11/05 05:46:58;;;;;;;;;;;;;;;11.99;53.47;100479.88;4938002;28;98180;-65
2022/11/05 05:49:24;;;;;;;;;;;;;;;11.97;53.44;100476.63;4938804;28;127387;-66
2022/11/05 05:51:50;;;;;;;;;;;;;;;11.96;53.45;100477.72;4931940;28;128123;-65
2022/11/05 05:54:16;;;;;;;;;;;;;;;11.96;53.62;100479.63;4937334;28;126714;-64
2022/11/05 05:56:43;;;;;;;;;;;;;;;11.96;53.57;100491.22;4942736;28;97781;-66
2022/11/05 05:59:09;;;;;;;;;;;;;;;11.95;53.49;100486.94;4940650;28;98661;-66
2022/11/05 06:01:35;;;;;;;;;;;;;;;11.97;53.39;100483.94;4941708;28;128123;-64
2022/11/05 06:04:01;;;;;;;;;;;;;;;11.97;53.65;100481.22;4940073;28;127266;-65
2022/11/05 06:06:26;;;;;;;;;;;;;;;11.96;53.48;100493.94;4940886;28;114563;-65
2022/11/05 06:08:54;;;;;;;;;;;;;;;11.95;53.38;100488.81;4939715;28;128177;-66
2022/11/05 06:11:20;;;;;;;;;;;;;;;11.96;53.60;100493.94;4939555;28;98580;-65
2022/11/05 06:13:46;;;;;;;;;;;;;;;11.95;53.52;100507.72;4941058;28;124839;-65
2022/11/05 06:16:12;;;;;;;;;;;;;;;11.95;53.43;100508.53;4939475;28;117593;-65
2022/11/05 06:18:38;;;;;;;;;;;;;;;11.95;53.52;100516.63;4938251;28;125955;-65
2022/11/05 06:21:08;;;;;;;;;;;;;;;11.96;53.43;100523.66;4938943;28;128422;-65
2022/11/05 06:23:34;;;;;;;;;;;;;;;11.96;53.58;100526.34;4938572;28;115835;-66
2022/11/05 06:26:04;;;;;;;;;;;;;;;11.98;53.31;100524.16;4939142;28;97787;-65
2022/11/05 06:28:32;;;;;;;;;;;;;;;11.98;53.32;100529.56;4939426;28;98577;-65
2022/11/05 06:30:58;;;;;;;;;;;;;;;11.99;53.46;100531.22;4934902;28;99338;-65
2022/11/05 06:33:24;;;;;;;;;;;;;;;11.99;53.43;100533.91;4939814;28;128008;-65
2022/11/05 06:35:50;;;;;;;;;;;;;;;12.01;53.25;100539.03;4954253;28;97988;-65
2022/11/05 06:38:16;;;;;;;;;;;;;;;12.02;53.37;100535.25;4939253;28;127504;-65
2022/11/05 06:40:42;;;;;;;;;;;;;;;12.03;53.51;100537.69;4943567;28;128264;-66
2022/11/05 06:43:07;;;;;;;;;;;;;;;12.05;53.32;100537.41;4937494;28;126958;-65
2022/11/05 06:45:33;;;;;;;;;;;;;;;12.06;53.36;100533.59;4938718;28;98240;-65
2022/11/05 06:47:59;;;;;;;;;;;;;;;12.08;53.37;100542.25;4938754;28;126882;-66
2022/11/05 06:50:26;;;;;;;;;;;;;;;12.08;53.34;100547.66;4940667;28;128882;-65
2022/11/05 06:52:53;;;;;;;;;;;;;;;12.11;53.29;100557.13;4938656;28;125741;-65
2022/11/05 06:55:19;;;;;;;;;;;;;;;12.11;53.21;100555.22;4942254;28;97780;-65
2022/11/05 06:57:45;;;;;;;;;;;;;;;12.13;53.39;100552.22;4941744;28;128169;-65
2022/11/05 07:00:11;;;;;;;;;;;;;;;12.16;53.35;100562.50;4952119;28;114522;-65
2022/11/05 07:02:37;;;;;;;;;;;;;;;12.18;53.33;100568.41;4936498;28;98202;-65
2022/11/05 07:05:03;;;;;;;;;;;;;;;12.20;53.22;100571.66;4937997;28;115934;-65
2022/11/05 07:07:29;;;;;;;;;;;;;;;12.21;53.24;100581.38;4939210;28;98749;-65
2022/11/05 07:09:55;;;;;;;;;;;;;;;12.23;53.34;100590.03;4937494;28;127012;-66
2022/11/05 07:12:21;;;;;;;;;;;;;;;12.24;53.19;100594.34;4938299;28;127508;-65
2022/11/05 07:14:47;;;;;;;;;;;;;;;12.24;53.36;100597.06;4937828;28;117105;-66
2022/11/05 07:17:15;;;;;;;;;;;;;;;12.25;53.21;100601.38;4939667;28;98956;-65
2022/11/05 07:19:41;;;;;;;;;;;;;;;12.27;52.91;100610.84;4933143;28;128304;-64
2022/11/05 07:22:07;;;;;;;;;;;;;;;12.29;53.40;100611.34;4937442;28;126863;-65
2022/11/05 07:24:33;;;;;;;;;;;;;;;12.31;53.21;100607.59;4934517;28;117887;-65
2022/11/05 07:26:59;;;;;;;;;;;;;;;12.31;53.39;100615.69;4935832;28;106530;-66
2022/11/05 07:29:25;;;;;;;;;;;;;;;12.33;53.35;100617.03;4934842;28;128326;-65
2022/11/05 07:31:50;;;;;;;;;;;;;;;12.35;53.25;100620.28;4931567;28;127530;-65
2022/11/05 07:34:16;;;;;;;;;;;;;;;12.36;53.35;100629.19;4936397;28;116005;-65
2022/11/05 07:36:42;;;;;;;;;;;;;;;12.36;53.21;100640.00;4948858;28;127001;-66
2022/11/05 07:39:09;;;;;;;;;;;;;;;12.38;53.23;100643.22;4938560;28;115886;-65
2022/11/05 07:41:34;;;;;;;;;;;;;;;12.41;53.07;100643.50;4934013;28;98066;-65
2022/11/05 07:44:02;;;;;;;;;;;;;;;12.40;53.00;100650.00;4939821;28;117173;-66
2022/11/05 07:46:28;;;;;;;;;;;;;;;12.43;53.17;100651.34;4940361;28;98454;-65
2022/11/05 07:48:54;;;;;;;;;;;;;;;12.43;53.27;100654.84;4928965;28;125841;-65
2022/11/05 07:51:20;;;;;;;;;;;;;;;12.50;52.93;100652.69;4937895;28;127002;-65
2022/11/05 07:53:47;;;;;;;;;;;;;;;12.50;52.96;100665.38;4937212;28;104386;-65
2022/11/05 07:56:13;;;;;;;;;;;;;;;12.57;52.88;100671.28;4938848;28;98410;-66
2022/11/05 07:58:39;;;;;;;;;;;;;;;12.59;53.01;100682.66;4939967;28;98911;-65
2022/11/05 08:01:06;;;;;;;;;;;;;;;12.63;53.03;100672.91;4939896;28;98109;-65
2022/11/05 08:03:32;;;;;;;;;;;;;;;12.69;53.01;100674.50;4939396;28;98247;-65
2022/11/05 08:05:58;;;;;;;;;;;;;;;12.71;52.78;100668.81;4938199;28;110185;-65
2022/11/05 08:08:24;;;;;;;;;;;;;;;12.87;52.71;100670.38;4938634;28;127771;-65
2022/11/05 08:10:50;;;;;;;;;;;;;;;12.84;52.65;100675.53;4941146;28;117035;-65
2022/11/05 08:13:16;;;;;;;;;;;;;;;12.97;52.50;100680.34;4937512;28;112804;-65
2022/11/05 08:15:42;;;;;;;;;;;;;;;12.98;52.57;100688.19;4934430;28;98196;-65
2022/11/05 08:18:10;;;;;;;;;;;;;;;13.04;52.56;100694.38;4940022;28;99293;-66
2022/11/05 08:20:37;;;;;;;;;;;;;;;13.05;52.94;100689.75;4940618;28;127889;-65
2022/11/05 08:23:03;;;;;;;;;;;;;;;13.07;52.79;100690.31;4938739;28;97981;-66
2022/11/05 08:25:29;;;;;;;;;;;;;;;13.24;52.39;100702.44;4936166;28;118616;-65
2022/11/05 08:28:02;;;;;;;;;;;;;;;13.28;52.34;100699.94;4937909;28;127865;-66
2022/11/05 08:30:28;;;;;;;;;;;;;;;13.56;52.39;100700.31;4936346;28;98031;-65
2022/11/05 08:32:58;;;;;;;;;;;;;;;13.47;52.57;100705.53;4935416;28;117250;-64
2022/11/05 08:35:25;;;;;;;;;;;;;;;13.44;52.66;100704.22;4937879;28;123744;-64
2022/11/05 08:37:54;;;;;;;;;;;;;;;13.52;52.51;100702.81;4938595;28;113944;-64
2022/11/05 08:40:20;;;;;;;;;;;;;;;13.57;52.52;100702.78;4938925;28;101688;-64
2022/11/05 08:42:46;;;;;;;;;;;;;;;13.86;51.80;100710.13;4935039;28;117661;-66
2022/11/05 08:45:12;;;;;;;;;;;;;;;14.00;52.18;100719.25;4934140;28;127005;-65
2022/11/05 08:47:38;;;;;;;;;;;;;;;13.96;51.84;100716.28;4938688;28;128719;-65
2022/11/05 08:50:04;;;;;;;;;;;;;;;13.87;52.43;100718.00;4938877;28;127643;-66
2022/11/05 08:52:30;;;;;;;;;;;;;;;13.94;52.46;100712.22;4939698;28;112861;-65
2022/11/05 08:54:56;;;;;;;;;;;;;;;14.11;51.86;100720.78;4936026;28;129359;-65
2022/11/05 08:57:21;;;;;;;;;;;;;;;14.12;51.96;100708.84;4933470;28;127391;-65
2022/11/05 08:59:47;;;;;;;;;;;;;;;14.15;52.28;100721.03;4938396;28;126639;-65
2022/11/05 09:02:13;;;;;;;;;;;;;;;14.27;51.83;100731.50;4937448;28;114178;-65
2022/11/05 09:04:39;;;;;;;;;;;;;;;14.48;51.67;100731.00;4934654;28;127974;-65
2022/11/05 09:07:05;;;;;;;;;;;;;;;15.14;50.86;100726.75;4921072;28;128508;-64
2022/11/05 09:09:31;;;;;;;;;;;;;;;15.20;51.01;100727.47;4939736;28;101563;-65
2022/11/05 09:11:57;;;;;;;;;;;;;;;15.59;50.71;100731.81;4937134;28;98151;-65
2022/11/05 09:14:25;;;;;;;;;;;;;;;15.50;51.21;100733.59;4940539;28;128717;-65
2022/11/05 09:16:52;;;;;;;;;;;;;;;15.62;51.14;100728.53;4935956;28;98141;-66
2022/11/05 09:19:18;;;;;;;;;;;;;;;16.11;50.57;100729.94;4937143;28;125140;-65
2022/11/05 09:21:43;;;;;;;;;;;;;;;15.93;51.31;100735.13;4936475;28;119294;-65
2022/11/05 09:24:09;;;;;;;;;;;;;;;16.01;51.25;100749.97;4935359;28;128749;-66
2022/11/05 09:26:35;;;;;;;;;;;;;;;15.94;51.33;100750.34;4932345;28;128277;-66
2022/11/05 09:29:01;;;;;;;;;;;;;;;15.84;51.68;100755.16;4935739;28;98388;-65
2022/11/05 09:31:27;;;;;;;;;;;;;;;15.98;51.57;100761.44;4935256;28;97886;-65
2022/11/05 09:33:53;;;;;;;;;;;;;;;16.20;51.25;100756.19;4935684;28;112273;-65
2022/11/05 09:36:19;;;;;;;;;;;;;;;16.44;50.94;100757.94;4938185;28;129091;-65
2022/11/05 09:38:45;;;;;;;;;;;;;;;16.62;50.65;100762.53;4937305;28;108090;-65
2022/11/05 09:41:22;;;;;;;;;;;;;;;16.82;50.50;100758.63;4935079;28;118411;-65
2022/11/05 09:43:53;;;;;;;;;;;;;;;17.04;50.56;100759.84;4916525;28;126720;-64
2022/11/05 09:46:38;;;;;;;;;;;;;;;17.12;50.50;100761.84;4935654;28;98690;-65
2022/11/05 09:49:05;;;;;;;;;;;;;;;17.03;50.85;100760.94;4924255;28;122695;-65
2022/11/05 09:51:31;;;;;;;;;;;;;;;16.86;51.27;100762.38;4955465;28;112315;-66
2022/11/05 09:54:00;;;;;;;;;;;;;;;16.89;51.23;100764.47;4937085;28;128374;-65
2022/11/05 09:56:28;;;;;;;;;;;;;;;17.05;51.08;100764.97;4938741;28;99939;-65
2022/11/05 09:59:17;;;;;;;;;;;;;;;17.00;51.11;100764.28;4938883;28;98017;-66
2022/11/05 10:01:42;;;;;;;;;;;;;;;16.93;51.30;100767.38;4936106;28;98217;-65
2022/11/05 10:04:13;;;;;;;;;;;;;;;16.93;51.44;100770.91;4934806;28;98476;-65
2022/11/05 10:06:48;;;;;;;;;;;;;;;17.09;51.17;100770.63;4952480;28;98747;-65
2022/11/05 10:09:22;;;;;;;;;;;;;;;17.33;50.66;100775.84;4923000;28;98105;-65
2022/11/05 10:11:59;;;;;;;;;;;;;;;17.61;50.50;100776.59;4933814;28;115930;-66
2022/11/05 10:14:32;;;;;;;;;;;;;;;18.04;50.23;100779.72;4930980;28;123294;-65
2022/11/05 10:17:02;;;;;;;;;;;;;;;18.13;50.01;100777.84;4916261;28;110081;-66
2022/11/05 10:19:38;;;;;;;;;;;;;;;18.36;49.79;100786.84;4935115;28;118486;-64
2022/11/05 10:22:15;;;;;;;;;;;;;;;18.59;49.96;100781.34;4949328;28;116153;-66
2022/11/05 10:24:43;;;;;;;;;;;;;;;18.81;49.41;100786.75;4936143;28;99429;-65
2022/11/05 10:27:15;;;;;;;;;;;;;;;18.98;49.69;100786.06;4934683;28;99351;-66
2022/11/05 10:29:41;;;;;;;;;;;;;;;18.91;49.85;100785.69;4937500;28;98475;-65
2022/11/05 10:32:08;;;;;;;;;;;;;;;18.83;50.17;100789.19;4929662;28;107730;-66
2022/11/05 10:34:35;;;;;;;;;;;;;;;18.53;50.63;100797.03;4916508;28;126754;-66
2022/11/05 10:37:00;;;;;;;;;;;;;;;18.22;51.42;100798.94;4935010;28;128245;-66
2022/11/05 10:39:27;;;;;;;;;;;;;;;18.30;51.07;100806.38;4938669;28;103801;-66
2022/11/05 10:42:03;;;;;;;;;;;;;;;18.33;50.81;100805.75;4932636;28;98487;-66
2022/11/05 10:44:40;;;;;;;;;;;;;;;18.79;50.24;100808.13;4936123;28;99080;-65
2022/11/05 10:47:31;;;;;;;;;;;;;;;18.93;50.09;100799.81;4950150;28;119644;-66
2022/11/05 10:50:02;;;;;;;;;;;;;;;19.12;49.95;100810.50;4939582;28;98349;-64
2022/11/05 10:52:34;;;;;;;;;;;;;;;19.25;49.99;100809.56;4935533;28;98011;-65
2022/11/05 10:55:03;;;;;;;;;;;;;;;19.19;50.15;100804.59;4935069;28;97804;-65
2022/11/05 10:57:39;;;;;;;;;;;;;;;19.17;50.22;100807.63;4938400;28;122746;-66
2022/11/05 11:00:14;;;;;;;;;;;;;;;18.95;50.75;100807.72;4939066;28;99279;-64
2022/11/05 11:02:44;;;;;;;;;;;;;;;18.83;50.96;100800.94;4940703;28;98723;-66
2022/11/05 11:05:11;;;;;;;;;;;;;;;18.53;51.44;100797.03;4937656;28;126723;-65
2022/11/05 11:07:36;;;;;;;;;;;;;;;18.59;51.33;100812.19;4915682;28;109161;-65
2022/11/05 11:10:03;;;;;;;;;;;;;;;18.43;51.61;100810.13;4937657;28;126294;-65
2022/11/05 11:12:36;;;;;;;;;;;;;;;18.32;51.63;100809.59;4951454;28;116616;-65
2022/11/05 11:15:26;;;;;;;;;;;;;;;18.37;51.50;100806.75;4934569;28;99252;-65
2022/11/05 11:17:52;;;;;;;;;;;;;;;18.52;51.25;100805.56;4938527;28;100385;-66
2022/11/05 11:20:28;;;;;;;;;;;;;;;18.54;51.21;100801.38;4938905;28;97878;-65
2022/11/05 11:23:12;;;;;;;;;;;;;;;18.63;51.25;100799.53;4935766;28;98377;-65
2022/11/05 11:25:59;;;;;;;;;;;;;;;18.79;50.91;100802.69;4936190;28;98218;-66
2022/11/05 11:28:31;;;;;;;;;;;;;;;18.80;51.05;100806.22;4931773;28;98457;-66
2022/11/05 11:31:14;;;;;;;;;;;;;;;18.73;51.07;100814.03;4936844;28;98579;-66
2022/11/05 11:33:44;;;;;;;;;;;;;;;18.52;51.52;100821.94;4932255;28;105838;-66
2022/11/05 11:36:10;;;;;;;;;;;;;;;18.41;51.74;100826.84;4927324;28;99420;-65
2022/11/05 11:38:36;;;;;;;;;;;;;;;18.48;51.44;100821.75;4931679;28;98560;-66
2022/11/05 11:41:24;;;;;;;;;;;;;;;18.44;51.62;100819.94;4931481;28;118137;-65
2022/11/05 11:43:53;;;;;;;;;;;;;;;18.42;51.41;100820.25;4935526;28;97946;-66
2022/11/05 11:46:19;;;;;;;;;;;;;;;18.37;51.62;100825.84;4934133;28;102223;-65
2022/11/05 11:48:46;;;;;;;;;;;;;;;18.22;51.73;100826.22;4933887;28;128896;-66
2022/11/05 11:51:27;;;;;;;;;;;;;;;18.06;51.92;100818.38;4933501;28;98650;-66
2022/11/05 11:53:56;;;;;;;;;;;;;;;18.17;51.62;100820.88;4934695;28;98376;-65
2022/11/05 11:56:22;;;;;;;;;;;;;;;17.97;51.92;100819.44;4935769;28;114796;-66
2022/11/05 11:58:49;;;;;;;;;;;;;;;17.72;52.31;100818.06;4937383;28;99124;-65
2022/11/05 12:01:40;;;;;;;;;;;;;;;17.51;52.55;100814.97;4919757;28;98275;-66
2022/11/05 12:04:12;;;;;;;;;;;;;;;17.31;52.71;100817.00;4937671;28;98166;-65
2022/11/05 12:06:50;;;;;;;;;;;;;;;17.17;52.71;100816.19;4936696;28;98798;-65
2022/11/05 12:09:44;;;;;;;;;;;;;;;16.98;52.68;100813.59;4918582;28;119885;-64
2022/11/05 12:12:14;;;;;;;;;;;;;;;16.84;52.66;100812.75;4948402;28;98525;-65
2022/11/05 12:14:49;;;;;;;;;;;;;;;16.75;52.83;100812.66;4936756;28;98669;-66
2022/11/05 12:17:46;;;;;;;;;;;;;;;16.60;52.92;100815.63;4937745;28;98713;-66
2022/11/05 12:20:44;;;;;;;;;;;;;;;16.45;52.91;100824.84;4934966;28;99055;-64
2022/11/05 12:23:09;;;;;;;;;;;;;;;16.39;52.94;100824.13;4935802;28;99410;-66
2022/11/05 12:25:47;;;;;;;;;;;;;;;16.36;52.88;100823.91;4934331;28;98055;-65
2022/11/05 12:28:42;;;;;;;;;;;;;;;16.34;52.69;100820.69;4926212;28;98301;-65
2022/11/05 12:31:26;;;;;;;;;;;;;;;16.31;52.82;100818.53;4937189;28;98887;-65
2022/11/05 12:34:16;;;;;;;;;;;;;;;16.37;52.61;100825.53;4922589;28;112198;-65
2022/11/05 12:37:00;;;;;;;;;;;;;;;16.34;52.52;100817.94;4953372;28;99120;-66
2022/11/05 12:39:42;;;;;;;;;;;;;;;16.29;52.60;100820.78;4954631;28;101903;-66
2022/11/05 12:42:24;;;;;;;;;;;;;;;16.29;52.58;100821.56;4936249;28;98649;-65
2022/11/05 12:45:18;;;;;;;;;;;;;;;16.39;52.42;100817.91;4934472;28;127019;-64
2022/11/05 12:48:03;;;;;;;;;;;;;;;16.45;52.18;100811.25;4926890;28;116020;-65
2022/11/05 12:50:38;;;;;;;;;;;;;;;16.46;52.25;100826.44;4943269;28;126739;-66
2022/11/05 12:53:33;;;;;;;;;;;;;;;16.42;52.53;100839.03;4952941;28;105949;-66
2022/11/05 12:56:00;;;;;;;;;;;;;;;16.42;52.28;100836.31;4944275;28;98353;-65
2022/11/05 12:58:39;;;;;;;;;;;;;;;16.43;52.22;100832.50;4941238;28;98209;-66
2022/11/05 13:01:08;;;;;;;;;;;;;;;16.39;52.40;100834.22;4938994;28;98894;-66
2022/11/05 13:03:42;;;;;;;;;;;;;;;16.32;52.45;100839.22;4922578;28;98415;-65
2022/11/05 13:06:39;;;;;;;;;;;;;;;16.23;52.67;100838.25;4928266;28;98421;-65
2022/11/05 13:09:32;;;;;;;;;;;;;;;16.11;52.57;100842.25;4948591;28;97867;-65
2022/11/05 13:12:02;;;;;;;;;;;;;;;15.98;52.65;100836.75;4937543;28;128285;-65
2022/11/05 13:14:33;;;;;;;;;;;;;;;15.89;52.72;100831.16;4939147;28;126549;-65
2022/11/05 13:17:05;;;;;;;;;;;;;;;15.83;52.78;100833.13;4939553;28;127886;-65
2022/11/05 13:19:40;;;;;;;;;;;;;;;15.72;52.91;100842.56;4939178;28;97746;-65
2022/11/05 13:22:09;;;;;;;;;;;;;;;15.61;53.07;100835.59;4936319;28;128234;-66
2022/11/05 13:24:47;;;;;;;;;;;;;;;15.54;53.02;100832.44;4936754;28;103619;-66
2022/11/05 13:27:46;;;;;;;;;;;;;;;15.49;53.03;100838.75;4939458;28;98837;-65